sensor_id;sensor_type;location;lat;lon;timestamp;P1;durP1;ratioP1;P2;durP2;ratioP2
14550;SDS011;7362;50.956;4.184;2022-10-13T00:03:32;7.53;;;5.03;;
14550;SDS011;7362;50.956;4.184;2022-10-13T00:09:18;8.55;;;5.15;;
14550;SDS011;7362;50.956;4.184;2022-10-13T00:11:50;7.10;;;4.90;;
14550;SDS011;7362;50.956;4.184;2022-10-13T00:14:15;8.88;;;5.25;;
14550;SDS011;7362;50.956;4.184;2022-10-13T00:16:41;9.10;;;5.00;;
14550;SDS011;7362;50.956;4.184;2022-10-13T00:21:39;7.78;;;5.10;;
14550;SDS011;7362;50.956;4.184;2022-10-13T00:24:19;11.63;;;6.10;;
14550;SDS011;7362;50.956;4.184;2022-10-13T00:26:44;11.43;;;4.97;;
14550;SDS011;7362;50.956;4.184;2022-10-13T00:29:10;8.95;;;5.55;;
14550;SDS011;7362;50.956;4.184;2022-10-13T00:31:44;8.98;;;5.35;;
14550;SDS011;7362;50.956;4.184;2022-10-13T00:34:11;12.10;;;5.05;;
14550;SDS011;7362;50.956;4.184;2022-10-13T00:36:38;9.38;;;5.03;;
14550;SDS011;7362;50.956;4.184;2022-10-13T00:39:03;8.52;;;5.57;;
14550;SDS011;7362;50.956;4.184;2022-10-13T00:41:29;13.35;;;5.45;;
14550;SDS011;7362;50.956;4.184;2022-10-13T00:46:33;8.18;;;5.18;;
14550;SDS011;7362;50.956;4.184;2022-10-13T00:49:07;8.85;;;5.40;;
14550;SDS011;7362;50.956;4.184;2022-10-13T00:51:40;10.93;;;5.60;;
14550;SDS011;7362;50.956;4.184;2022-10-13T00:54:23;8.02;;;5.10;;
14550;SDS011;7362;50.956;4.184;2022-10-13T00:56:49;12.45;;;5.68;;
14550;SDS011;7362;50.956;4.184;2022-10-13T00:59:18;11.45;;;5.35;;
14550;SDS011;7362;50.956;4.184;2022-10-13T01:01:50;8.13;;;5.05;;
14550;SDS011;7362;50.956;4.184;2022-10-13T01:04:16;8.77;;;5.03;;
14550;SDS011;7362;50.956;4.184;2022-10-13T01:06:47;10.55;;;5.30;;
14550;SDS011;7362;50.956;4.184;2022-10-13T01:09:13;8.35;;;5.38;;
14550;SDS011;7362;50.956;4.184;2022-10-13T01:17:42;9.80;;;5.25;;
14550;SDS011;7362;50.956;4.184;2022-10-13T01:32:06;10.18;;;5.40;;
14550;SDS011;7362;50.956;4.184;2022-10-13T01:34:40;10.05;;;6.00;;
14550;SDS011;7362;50.956;4.184;2022-10-13T01:40:14;9.90;;;5.30;;
14550;SDS011;7362;50.956;4.184;2022-10-13T01:42:47;7.70;;;4.97;;
14550;SDS011;7362;50.956;4.184;2022-10-13T01:45:36;8.55;;;5.00;;
14550;SDS011;7362;50.956;4.184;2022-10-13T01:48:07;9.05;;;5.60;;
14550;SDS011;7362;50.956;4.184;2022-10-13T01:50:35;8.57;;;5.45;;
14550;SDS011;7362;50.956;4.184;2022-10-13T01:53:02;8.60;;;5.25;;
14550;SDS011;7362;50.956;4.184;2022-10-13T01:55:30;10.27;;;5.32;;
14550;SDS011;7362;50.956;4.184;2022-10-13T01:57:58;11.95;;;5.72;;
14550;SDS011;7362;50.956;4.184;2022-10-13T02:00:24;9.38;;;5.65;;
14550;SDS011;7362;50.956;4.184;2022-10-13T02:08:16;10.98;;;6.75;;
14550;SDS011;7362;50.956;4.184;2022-10-13T02:13:40;9.00;;;6.20;;
14550;SDS011;7362;50.956;4.184;2022-10-13T02:16:11;14.15;;;7.30;;
14550;SDS011;7362;50.956;4.184;2022-10-13T02:18:40;9.82;;;7.43;;
14550;SDS011;7362;50.956;4.184;2022-10-13T02:21:07;10.73;;;6.95;;
14550;SDS011;7362;50.956;4.184;2022-10-13T02:23:33;10.77;;;6.60;;
14550;SDS011;7362;50.956;4.184;2022-10-13T02:26:00;11.52;;;7.00;;
14550;SDS011;7362;50.956;4.184;2022-10-13T02:28:27;14.32;;;7.22;;
14550;SDS011;7362;50.956;4.184;2022-10-13T02:30:53;10.18;;;7.10;;
14550;SDS011;7362;50.956;4.184;2022-10-13T02:33:19;10.02;;;7.07;;
14550;SDS011;7362;50.956;4.184;2022-10-13T02:41:55;13.30;;;7.05;;
14550;SDS011;7362;50.956;4.184;2022-10-13T02:44:36;11.68;;;8.18;;
14550;SDS011;7362;50.956;4.184;2022-10-13T02:47:15;11.20;;;7.45;;
14550;SDS011;7362;50.956;4.184;2022-10-13T02:49:48;10.95;;;7.25;;
14550;SDS011;7362;50.956;4.184;2022-10-13T02:52:48;13.65;;;7.68;;
14550;SDS011;7362;50.956;4.184;2022-10-13T02:55:14;13.95;;;8.07;;
14550;SDS011;7362;50.956;4.184;2022-10-13T02:57:40;11.27;;;8.10;;
14550;SDS011;7362;50.956;4.184;2022-10-13T03:00:06;15.25;;;8.20;;
14550;SDS011;7362;50.956;4.184;2022-10-13T03:02:35;12.13;;;7.90;;
14550;SDS011;7362;50.956;4.184;2022-10-13T03:07:30;12.50;;;7.68;;
14550;SDS011;7362;50.956;4.184;2022-10-13T03:09:55;10.30;;;7.40;;
14550;SDS011;7362;50.956;4.184;2022-10-13T03:12:22;14.57;;;7.68;;
14550;SDS011;7362;50.956;4.184;2022-10-13T03:14:48;13.75;;;7.93;;
14550;SDS011;7362;50.956;4.184;2022-10-13T03:17:14;15.65;;;8.02;;
14550;SDS011;7362;50.956;4.184;2022-10-13T03:19:40;12.15;;;8.00;;
14550;SDS011;7362;50.956;4.184;2022-10-13T03:22:08;14.00;;;8.90;;
14550;SDS011;7362;50.956;4.184;2022-10-13T03:24:33;13.48;;;8.75;;
14550;SDS011;7362;50.956;4.184;2022-10-13T03:26:59;17.38;;;8.88;;
14550;SDS011;7362;50.956;4.184;2022-10-13T03:29:24;12.77;;;8.27;;
14550;SDS011;7362;50.956;4.184;2022-10-13T03:31:50;16.10;;;8.57;;
14550;SDS011;7362;50.956;4.184;2022-10-13T03:34:18;14.88;;;8.13;;
14550;SDS011;7362;50.956;4.184;2022-10-13T03:36:48;13.70;;;8.65;;
14550;SDS011;7362;50.956;4.184;2022-10-13T03:39:23;12.70;;;8.63;;
14550;SDS011;7362;50.956;4.184;2022-10-13T03:41:49;12.13;;;8.50;;
14550;SDS011;7362;50.956;4.184;2022-10-13T03:44:16;13.73;;;9.45;;
14550;SDS011;7362;50.956;4.184;2022-10-13T03:46:48;10.93;;;8.18;;
14550;SDS011;7362;50.956;4.184;2022-10-13T03:49:27;12.68;;;7.60;;
14550;SDS011;7362;50.956;4.184;2022-10-13T03:52:01;14.25;;;8.30;;
14550;SDS011;7362;50.956;4.184;2022-10-13T03:57:53;17.45;;;8.68;;
14550;SDS011;7362;50.956;4.184;2022-10-13T04:03:40;12.52;;;8.50;;
14550;SDS011;7362;50.956;4.184;2022-10-13T04:12:50;19.42;;;9.23;;
14550;SDS011;7362;50.956;4.184;2022-10-13T04:22:01;13.63;;;8.30;;
14550;SDS011;7362;50.956;4.184;2022-10-13T04:41:19;19.20;;;8.38;;
14550;SDS011;7362;50.956;4.184;2022-10-13T04:47:08;10.50;;;7.07;;
14550;SDS011;7362;50.956;4.184;2022-10-13T04:52:58;13.20;;;7.82;;
14550;SDS011;7362;50.956;4.184;2022-10-13T04:58:46;14.13;;;7.38;;
14550;SDS011;7362;50.956;4.184;2022-10-13T05:04:34;11.48;;;7.65;;
14550;SDS011;7362;50.956;4.184;2022-10-13T05:07:02;13.20;;;7.03;;
14550;SDS011;7362;50.956;4.184;2022-10-13T05:12:15;13.38;;;7.68;;
14550;SDS011;7362;50.956;4.184;2022-10-13T05:20:16;11.88;;;7.50;;
14550;SDS011;7362;50.956;4.184;2022-10-13T05:22:45;11.63;;;7.55;;
14550;SDS011;7362;50.956;4.184;2022-10-13T05:25:21;13.38;;;6.80;;
14550;SDS011;7362;50.956;4.184;2022-10-13T05:43:17;12.40;;;8.07;;
14550;SDS011;7362;50.956;4.184;2022-10-13T05:45:46;14.18;;;8.15;;
14550;SDS011;7362;50.956;4.184;2022-10-13T05:48:31;14.15;;;7.65;;
14550;SDS011;7362;50.956;4.184;2022-10-13T05:51:01;12.35;;;8.10;;
14550;SDS011;7362;50.956;4.184;2022-10-13T05:53:32;11.30;;;7.78;;
14550;SDS011;7362;50.956;4.184;2022-10-13T05:56:09;17.58;;;7.88;;
14550;SDS011;7362;50.956;4.184;2022-10-13T05:58:48;12.50;;;7.18;;
14550;SDS011;7362;50.956;4.184;2022-10-13T06:01:25;12.50;;;7.57;;
14550;SDS011;7362;50.956;4.184;2022-10-13T06:06:32;10.88;;;8.23;;
14550;SDS011;7362;50.956;4.184;2022-10-13T06:15:16;10.30;;;7.18;;
14550;SDS011;7362;50.956;4.184;2022-10-13T06:18:22;12.95;;;7.18;;
14550;SDS011;7362;50.956;4.184;2022-10-13T06:20:49;13.90;;;7.20;;
14550;SDS011;7362;50.956;4.184;2022-10-13T06:30:58;12.43;;;6.78;;
14550;SDS011;7362;50.956;4.184;2022-10-13T06:33:36;10.75;;;7.38;;
14550;SDS011;7362;50.956;4.184;2022-10-13T06:36:02;11.50;;;6.85;;
14550;SDS011;7362;50.956;4.184;2022-10-13T06:39:01;13.57;;;6.88;;
14550;SDS011;7362;50.956;4.184;2022-10-13T06:44:29;15.95;;;7.60;;
14550;SDS011;7362;50.956;4.184;2022-10-13T06:46:57;10.88;;;7.07;;
14550;SDS011;7362;50.956;4.184;2022-10-13T06:49:23;15.63;;;7.68;;
14550;SDS011;7362;50.956;4.184;2022-10-13T06:51:49;8.93;;;6.55;;
14550;SDS011;7362;50.956;4.184;2022-10-13T06:54:16;11.32;;;6.78;;
14550;SDS011;7362;50.956;4.184;2022-10-13T06:56:59;11.07;;;7.25;;
14550;SDS011;7362;50.956;4.184;2022-10-13T06:59:26;14.23;;;7.07;;
14550;SDS011;7362;50.956;4.184;2022-10-13T07:02:37;11.98;;;6.00;;
14550;SDS011;7362;50.956;4.184;2022-10-13T07:05:05;13.00;;;6.95;;
14550;SDS011;7362;50.956;4.184;2022-10-13T07:07:31;10.52;;;6.53;;
14550;SDS011;7362;50.956;4.184;2022-10-13T07:09:59;10.95;;;6.38;;
14550;SDS011;7362;50.956;4.184;2022-10-13T07:14:55;11.68;;;6.85;;
14550;SDS011;7362;50.956;4.184;2022-10-13T07:17:23;12.60;;;6.53;;
14550;SDS011;7362;50.956;4.184;2022-10-13T07:19:55;15.82;;;8.32;;
14550;SDS011;7362;50.956;4.184;2022-10-13T07:22:47;11.15;;;6.45;;
14550;SDS011;7362;50.956;4.184;2022-10-13T07:25:20;11.80;;;6.18;;
14550;SDS011;7362;50.956;4.184;2022-10-13T07:27:57;10.00;;;6.43;;
14550;SDS011;7362;50.956;4.184;2022-10-13T07:30:30;17.70;;;6.30;;
14550;SDS011;7362;50.956;4.184;2022-10-13T07:33:01;12.68;;;6.90;;
14550;SDS011;7362;50.956;4.184;2022-10-13T07:35:28;8.80;;;6.93;;
14550;SDS011;7362;50.956;4.184;2022-10-13T07:45:43;10.90;;;5.95;;
14550;SDS011;7362;50.956;4.184;2022-10-13T07:48:12;11.15;;;6.70;;
14550;SDS011;7362;50.956;4.184;2022-10-13T07:54:17;11.98;;;6.25;;
14550;SDS011;7362;50.956;4.184;2022-10-13T07:57:06;13.52;;;6.43;;
14550;SDS011;7362;50.956;4.184;2022-10-13T07:59:46;9.25;;;6.13;;
14550;SDS011;7362;50.956;4.184;2022-10-13T08:02:43;10.43;;;5.93;;
14550;SDS011;7362;50.956;4.184;2022-10-13T08:05:14;11.77;;;7.30;;
14550;SDS011;7362;50.956;4.184;2022-10-13T08:07:41;11.60;;;6.32;;
14550;SDS011;7362;50.956;4.184;2022-10-13T08:16:36;10.82;;;6.38;;
14550;SDS011;7362;50.956;4.184;2022-10-13T08:19:06;9.07;;;5.70;;
14550;SDS011;7362;50.956;4.184;2022-10-13T08:21:34;14.93;;;6.10;;
14550;SDS011;7362;50.956;4.184;2022-10-13T08:24:18;10.07;;;5.80;;
14550;SDS011;7362;50.956;4.184;2022-10-13T08:26:55;9.70;;;6.20;;
14550;SDS011;7362;50.956;4.184;2022-10-13T08:29:25;8.95;;;6.10;;
14550;SDS011;7362;50.956;4.184;2022-10-13T08:31:56;9.95;;;5.75;;
14550;SDS011;7362;50.956;4.184;2022-10-13T08:34:22;9.85;;;6.78;;
14550;SDS011;7362;50.956;4.184;2022-10-13T08:39:20;10.23;;;5.90;;
14550;SDS011;7362;50.956;4.184;2022-10-13T08:41:59;15.30;;;5.95;;
14550;SDS011;7362;50.956;4.184;2022-10-13T08:50:29;9.23;;;5.53;;
14550;SDS011;7362;50.956;4.184;2022-10-13T08:53:04;11.57;;;6.25;;
14550;SDS011;7362;50.956;4.184;2022-10-13T08:59:25;19.55;;;6.20;;
14550;SDS011;7362;50.956;4.184;2022-10-13T09:02:32;8.98;;;5.63;;
14550;SDS011;7362;50.956;4.184;2022-10-13T09:04:59;11.65;;;6.03;;
14550;SDS011;7362;50.956;4.184;2022-10-13T09:08:12;11.48;;;5.30;;
14550;SDS011;7362;50.956;4.184;2022-10-13T09:10:48;16.38;;;5.38;;
14550;SDS011;7362;50.956;4.184;2022-10-13T09:13:29;9.77;;;5.50;;
14550;SDS011;7362;50.956;4.184;2022-10-13T09:15:55;18.33;;;5.88;;
14550;SDS011;7362;50.956;4.184;2022-10-13T09:18:29;12.73;;;5.32;;
14550;SDS011;7362;50.956;4.184;2022-10-13T09:21:19;10.18;;;5.78;;
14550;SDS011;7362;50.956;4.184;2022-10-13T09:24:11;9.90;;;5.35;;
14550;SDS011;7362;50.956;4.184;2022-10-13T09:26:47;12.45;;;6.40;;
14550;SDS011;7362;50.956;4.184;2022-10-13T09:29:27;10.00;;;5.65;;
14550;SDS011;7362;50.956;4.184;2022-10-13T09:32:06;12.35;;;5.80;;
14550;SDS011;7362;50.956;4.184;2022-10-13T09:34:48;27.23;;;7.78;;
14550;SDS011;7362;50.956;4.184;2022-10-13T09:37:38;14.63;;;5.35;;
14550;SDS011;7362;50.956;4.184;2022-10-13T09:45:52;21.23;;;6.80;;
14550;SDS011;7362;50.956;4.184;2022-10-13T09:51:46;17.50;;;7.20;;
14550;SDS011;7362;50.956;4.184;2022-10-13T10:04:16;13.55;;;6.78;;
14550;SDS011;7362;50.956;4.184;2022-10-13T10:09:59;10.55;;;6.13;;
14550;SDS011;7362;50.956;4.184;2022-10-13T10:13:20;13.00;;;6.80;;
14550;SDS011;7362;50.956;4.184;2022-10-13T10:16:12;9.82;;;6.25;;
14550;SDS011;7362;50.956;4.184;2022-10-13T10:36:42;14.40;;;6.85;;
14550;SDS011;7362;50.956;4.184;2022-10-13T10:46:19;17.90;;;8.18;;
14550;SDS011;7362;50.956;4.184;2022-10-13T10:49:28;15.98;;;8.95;;
14550;SDS011;7362;50.956;4.184;2022-10-13T10:55:54;12.40;;;8.48;;
14550;SDS011;7362;50.956;4.184;2022-10-13T11:08:39;15.25;;;9.43;;
14550;SDS011;7362;50.956;4.184;2022-10-13T11:11:34;14.55;;;9.55;;
14550;SDS011;7362;50.956;4.184;2022-10-13T11:14:36;10.95;;;9.18;;
14550;SDS011;7362;50.956;4.184;2022-10-13T11:17:38;16.52;;;9.52;;
14550;SDS011;7362;50.956;4.184;2022-10-13T11:25:51;14.52;;;10.30;;
14550;SDS011;7362;50.956;4.184;2022-10-13T11:52:05;17.33;;;10.65;;
14550;SDS011;7362;50.956;4.184;2022-10-13T11:55:13;18.35;;;10.63;;
14550;SDS011;7362;50.956;4.184;2022-10-13T11:58:14;15.30;;;10.63;;
14550;SDS011;7362;50.956;4.184;2022-10-13T12:01:03;17.50;;;10.25;;
14550;SDS011;7362;50.956;4.184;2022-10-13T12:09:19;12.93;;;9.63;;
14550;SDS011;7362;50.956;4.184;2022-10-13T12:12:18;14.07;;;9.77;;
14550;SDS011;7362;50.956;4.184;2022-10-13T12:35:31;16.50;;;10.40;;
14550;SDS011;7362;50.956;4.184;2022-10-13T12:38:02;13.48;;;10.25;;
14550;SDS011;7362;50.956;4.184;2022-10-13T12:40:32;17.38;;;10.90;;
14550;SDS011;7362;50.956;4.184;2022-10-13T12:43:03;16.30;;;10.90;;
14550;SDS011;7362;50.956;4.184;2022-10-13T12:45:31;14.48;;;9.90;;
14550;SDS011;7362;50.956;4.184;2022-10-13T12:51:24;21.20;;;10.85;;
14550;SDS011;7362;50.956;4.184;2022-10-13T12:53:52;17.95;;;10.18;;
14550;SDS011;7362;50.956;4.184;2022-10-13T12:56:24;17.63;;;10.93;;
14550;SDS011;7362;50.956;4.184;2022-10-13T12:59:21;14.43;;;10.88;;
14550;SDS011;7362;50.956;4.184;2022-10-13T13:04:46;14.02;;;10.38;;
14550;SDS011;7362;50.956;4.184;2022-10-13T13:12:28;15.32;;;10.65;;
14550;SDS011;7362;50.956;4.184;2022-10-13T13:17:47;15.45;;;10.27;;
14550;SDS011;7362;50.956;4.184;2022-10-13T13:33:20;17.40;;;11.23;;
14550;SDS011;7362;50.956;4.184;2022-10-13T13:39:47;15.30;;;10.60;;
14550;SDS011;7362;50.956;4.184;2022-10-13T13:42:34;15.77;;;11.40;;
14550;SDS011;7362;50.956;4.184;2022-10-13T13:45:01;18.20;;;11.63;;
14550;SDS011;7362;50.956;4.184;2022-10-13T13:47:58;16.83;;;12.13;;
14550;SDS011;7362;50.956;4.184;2022-10-13T13:50:25;15.23;;;11.57;;
14550;SDS011;7362;50.956;4.184;2022-10-13T13:53:23;16.50;;;11.52;;
14550;SDS011;7362;50.956;4.184;2022-10-13T13:56:01;18.30;;;13.18;;
14550;SDS011;7362;50.956;4.184;2022-10-13T14:01:45;18.63;;;13.32;;
14550;SDS011;7362;50.956;4.184;2022-10-13T14:04:35;16.75;;;12.43;;
14550;SDS011;7362;50.956;4.184;2022-10-13T14:07:01;20.15;;;13.50;;
14550;SDS011;7362;50.956;4.184;2022-10-13T14:12:31;14.30;;;11.63;;
14550;SDS011;7362;50.956;4.184;2022-10-13T14:15:32;16.23;;;12.60;;
14550;SDS011;7362;50.956;4.184;2022-10-13T14:18:03;18.63;;;12.70;;
14550;SDS011;7362;50.956;4.184;2022-10-13T14:20:31;17.08;;;11.07;;
14550;SDS011;7362;50.956;4.184;2022-10-13T14:22:58;18.77;;;11.65;;
14550;SDS011;7362;50.956;4.184;2022-10-13T14:28:08;13.55;;;10.63;;
14550;SDS011;7362;50.956;4.184;2022-10-13T14:30:33;15.20;;;10.90;;
14550;SDS011;7362;50.956;4.184;2022-10-13T14:33:04;15.25;;;10.13;;
14550;SDS011;7362;50.956;4.184;2022-10-13T14:35:31;13.32;;;10.70;;
14550;SDS011;7362;50.956;4.184;2022-10-13T14:37:57;12.38;;;9.60;;
14550;SDS011;7362;50.956;4.184;2022-10-13T14:40:26;12.13;;;8.73;;
14550;SDS011;7362;50.956;4.184;2022-10-13T14:42:55;13.57;;;9.45;;
14550;SDS011;7362;50.956;4.184;2022-10-13T14:45:22;12.82;;;9.60;;
14550;SDS011;7362;50.956;4.184;2022-10-13T14:51:23;13.10;;;9.88;;
14550;SDS011;7362;50.956;4.184;2022-10-13T14:54:14;10.35;;;8.80;;
14550;SDS011;7362;50.956;4.184;2022-10-13T14:56:41;11.77;;;9.10;;
14550;SDS011;7362;50.956;4.184;2022-10-13T14:59:11;11.40;;;7.93;;
14550;SDS011;7362;50.956;4.184;2022-10-13T15:02:02;9.55;;;6.40;;
14550;SDS011;7362;50.956;4.184;2022-10-13T15:04:46;9.05;;;7.03;;
14550;SDS011;7362;50.956;4.184;2022-10-13T15:07:25;10.48;;;7.38;;
14550;SDS011;7362;50.956;4.184;2022-10-13T15:10:14;12.70;;;7.43;;
14550;SDS011;7362;50.956;4.184;2022-10-13T15:12:51;10.10;;;6.97;;
14550;SDS011;7362;50.956;4.184;2022-10-13T15:15:24;13.05;;;8.20;;
14550;SDS011;7362;50.956;4.184;2022-10-13T15:17:54;9.27;;;7.03;;
14550;SDS011;7362;50.956;4.184;2022-10-13T15:20:27;8.38;;;6.15;;
14550;SDS011;7362;50.956;4.184;2022-10-13T15:23:27;8.48;;;5.78;;
14550;SDS011;7362;50.956;4.184;2022-10-13T15:26:00;8.32;;;5.60;;
14550;SDS011;7362;50.956;4.184;2022-10-13T15:34:42;6.70;;;5.38;;
14550;SDS011;7362;50.956;4.184;2022-10-13T15:40:42;7.38;;;5.15;;
14550;SDS011;7362;50.956;4.184;2022-10-13T15:52:06;13.10;;;6.70;;
14550;SDS011;7362;50.956;4.184;2022-10-13T15:54:40;9.00;;;6.72;;
14550;SDS011;7362;50.956;4.184;2022-10-13T15:57:07;7.72;;;5.07;;
14550;SDS011;7362;50.956;4.184;2022-10-13T16:02:58;8.70;;;6.05;;
14550;SDS011;7362;50.956;4.184;2022-10-13T16:05:28;8.68;;;6.05;;
14550;SDS011;7362;50.956;4.184;2022-10-13T16:07:58;9.30;;;6.30;;
14550;SDS011;7362;50.956;4.184;2022-10-13T16:10:31;8.55;;;6.13;;
14550;SDS011;7362;50.956;4.184;2022-10-13T16:15:58;8.43;;;6.75;;
14550;SDS011;7362;50.956;4.184;2022-10-13T16:19:10;8.07;;;5.80;;
14550;SDS011;7362;50.956;4.184;2022-10-13T16:25:29;10.00;;;5.78;;
14550;SDS011;7362;50.956;4.184;2022-10-13T16:28:34;7.97;;;5.95;;
14550;SDS011;7362;50.956;4.184;2022-10-13T16:31:05;8.68;;;6.68;;
14550;SDS011;7362;50.956;4.184;2022-10-13T16:33:34;7.10;;;5.75;;
14550;SDS011;7362;50.956;4.184;2022-10-13T16:38:52;10.05;;;5.97;;
14550;SDS011;7362;50.956;4.184;2022-10-13T16:41:41;10.15;;;6.55;;
14550;SDS011;7362;50.956;4.184;2022-10-13T16:44:21;9.25;;;6.57;;
14550;SDS011;7362;50.956;4.184;2022-10-13T16:47:28;9.45;;;6.15;;
14550;SDS011;7362;50.956;4.184;2022-10-13T16:49:54;8.57;;;6.45;;
14550;SDS011;7362;50.956;4.184;2022-10-13T16:52:26;10.32;;;7.00;;
14550;SDS011;7362;50.956;4.184;2022-10-13T16:55:04;9.95;;;6.60;;
14550;SDS011;7362;50.956;4.184;2022-10-13T16:57:59;13.75;;;8.75;;
14550;SDS011;7362;50.956;4.184;2022-10-13T17:00:29;19.13;;;14.23;;
14550;SDS011;7362;50.956;4.184;2022-10-13T17:05:57;9.55;;;8.35;;
14550;SDS011;7362;50.956;4.184;2022-10-13T17:08:28;11.13;;;8.88;;
14550;SDS011;7362;50.956;4.184;2022-10-13T17:10:59;10.55;;;8.38;;
14550;SDS011;7362;50.956;4.184;2022-10-13T17:13:55;10.50;;;7.80;;
14550;SDS011;7362;50.956;4.184;2022-10-13T17:22:58;11.75;;;8.40;;
14550;SDS011;7362;50.956;4.184;2022-10-13T17:27:56;10.02;;;8.52;;
14550;SDS011;7362;50.956;4.184;2022-10-13T17:33:17;32.35;;;18.75;;
14550;SDS011;7362;50.956;4.184;2022-10-13T17:35:45;50.95;;;24.58;;
14550;SDS011;7362;50.956;4.184;2022-10-13T17:38:12;26.10;;;14.75;;
14550;SDS011;7362;50.956;4.184;2022-10-13T17:45:38;13.27;;;9.02;;
14550;SDS011;7362;50.956;4.184;2022-10-13T17:48:10;13.30;;;11.32;;
14550;SDS011;7362;50.956;4.184;2022-10-13T17:50:38;16.02;;;13.40;;
14550;SDS011;7362;50.956;4.184;2022-10-13T17:53:05;13.90;;;11.70;;
14550;SDS011;7362;50.956;4.184;2022-10-13T17:55:33;16.70;;;12.20;;
14550;SDS011;7362;50.956;4.184;2022-10-13T17:57:59;13.27;;;11.90;;
14550;SDS011;7362;50.956;4.184;2022-10-13T18:00:26;10.48;;;8.60;;
14550;SDS011;7362;50.956;4.184;2022-10-13T18:02:52;12.07;;;9.30;;
14550;SDS011;7362;50.956;4.184;2022-10-13T18:05:19;11.90;;;8.65;;
14550;SDS011;7362;50.956;4.184;2022-10-13T18:07:45;10.85;;;9.40;;
14550;SDS011;7362;50.956;4.184;2022-10-13T18:10:45;10.32;;;8.68;;
14550;SDS011;7362;50.956;4.184;2022-10-13T18:13:11;14.63;;;11.07;;
14550;SDS011;7362;50.956;4.184;2022-10-13T18:15:37;9.52;;;8.10;;
14550;SDS011;7362;50.956;4.184;2022-10-13T18:20:55;11.13;;;8.38;;
14550;SDS011;7362;50.956;4.184;2022-10-13T18:23:49;11.88;;;10.00;;
14550;SDS011;7362;50.956;4.184;2022-10-13T18:26:23;13.73;;;11.02;;
14550;SDS011;7362;50.956;4.184;2022-10-13T18:28:52;11.20;;;9.65;;
14550;SDS011;7362;50.956;4.184;2022-10-13T18:31:27;18.13;;;16.23;;
14550;SDS011;7362;50.956;4.184;2022-10-13T18:34:07;18.45;;;16.65;;
14550;SDS011;7362;50.956;4.184;2022-10-13T18:36:43;12.02;;;10.27;;
14550;SDS011;7362;50.956;4.184;2022-10-13T18:39:24;11.18;;;9.88;;
14550;SDS011;7362;50.956;4.184;2022-10-13T18:41:54;14.57;;;11.45;;
14550;SDS011;7362;50.956;4.184;2022-10-13T18:44:21;12.48;;;9.80;;
14550;SDS011;7362;50.956;4.184;2022-10-13T18:47:07;11.05;;;9.18;;
14550;SDS011;7362;50.956;4.184;2022-10-13T18:49:39;11.10;;;8.57;;
14550;SDS011;7362;50.956;4.184;2022-10-13T18:52:09;10.95;;;9.00;;
14550;SDS011;7362;50.956;4.184;2022-10-13T18:54:47;14.85;;;9.50;;
14550;SDS011;7362;50.956;4.184;2022-10-13T18:57:23;10.48;;;8.93;;
14550;SDS011;7362;50.956;4.184;2022-10-13T18:59:54;10.32;;;7.57;;
14550;SDS011;7362;50.956;4.184;2022-10-13T19:02:50;8.77;;;7.60;;
14550;SDS011;7362;50.956;4.184;2022-10-13T19:05:20;9.52;;;7.18;;
14550;SDS011;7362;50.956;4.184;2022-10-13T19:12:14;9.18;;;8.20;;
14550;SDS011;7362;50.956;4.184;2022-10-13T19:15:05;10.00;;;7.65;;
14550;SDS011;7362;50.956;4.184;2022-10-13T19:17:34;11.02;;;7.88;;
14550;SDS011;7362;50.956;4.184;2022-10-13T19:20:01;10.68;;;7.78;;
14550;SDS011;7362;50.956;4.184;2022-10-13T19:22:34;11.60;;;8.48;;
14550;SDS011;7362;50.956;4.184;2022-10-13T19:25:00;8.57;;;7.63;;
14550;SDS011;7362;50.956;4.184;2022-10-13T19:27:31;9.90;;;7.60;;
14550;SDS011;7362;50.956;4.184;2022-10-13T19:30:04;10.02;;;7.63;;
14550;SDS011;7362;50.956;4.184;2022-10-13T19:35:02;9.57;;;7.97;;
14550;SDS011;7362;50.956;4.184;2022-10-13T19:39:59;10.30;;;7.72;;
14550;SDS011;7362;50.956;4.184;2022-10-13T19:42:25;8.50;;;7.05;;
14550;SDS011;7362;50.956;4.184;2022-10-13T19:44:55;11.77;;;7.85;;
14550;SDS011;7362;50.956;4.184;2022-10-13T19:49:54;10.98;;;7.85;;
14550;SDS011;7362;50.956;4.184;2022-10-13T19:52:20;9.30;;;7.78;;
14550;SDS011;7362;50.956;4.184;2022-10-13T19:54:46;8.70;;;7.03;;
14550;SDS011;7362;50.956;4.184;2022-10-13T19:57:12;8.82;;;7.13;;
14550;SDS011;7362;50.956;4.184;2022-10-13T19:59:39;9.30;;;7.38;;
14550;SDS011;7362;50.956;4.184;2022-10-13T20:02:15;9.23;;;6.97;;
14550;SDS011;7362;50.956;4.184;2022-10-13T20:04:46;9.93;;;6.90;;
14550;SDS011;7362;50.956;4.184;2022-10-13T20:07:12;8.52;;;7.45;;
14550;SDS011;7362;50.956;4.184;2022-10-13T20:09:39;8.05;;;6.88;;
14550;SDS011;7362;50.956;4.184;2022-10-13T20:12:34;7.85;;;7.03;;
14550;SDS011;7362;50.956;4.184;2022-10-13T20:17:54;8.80;;;7.57;;
14550;SDS011;7362;50.956;4.184;2022-10-13T20:26:12;12.82;;;8.88;;
14550;SDS011;7362;50.956;4.184;2022-10-13T20:28:40;9.60;;;8.60;;
14550;SDS011;7362;50.956;4.184;2022-10-13T20:31:11;9.20;;;7.85;;
14550;SDS011;7362;50.956;4.184;2022-10-13T20:33:41;8.60;;;7.60;;
14550;SDS011;7362;50.956;4.184;2022-10-13T20:36:24;11.15;;;8.95;;
14550;SDS011;7362;50.956;4.184;2022-10-13T20:41:29;9.57;;;8.27;;
14550;SDS011;7362;50.956;4.184;2022-10-13T20:44:11;10.85;;;9.07;;
14550;SDS011;7362;50.956;4.184;2022-10-13T20:46:37;10.65;;;9.48;;
14550;SDS011;7362;50.956;4.184;2022-10-13T20:49:04;9.52;;;8.52;;
14550;SDS011;7362;50.956;4.184;2022-10-13T20:51:29;9.75;;;8.57;;
14550;SDS011;7362;50.956;4.184;2022-10-13T20:53:55;10.30;;;9.13;;
14550;SDS011;7362;50.956;4.184;2022-10-13T20:56:22;9.20;;;8.15;;
14550;SDS011;7362;50.956;4.184;2022-10-13T20:58:52;10.55;;;8.48;;
14550;SDS011;7362;50.956;4.184;2022-10-13T21:09:25;9.05;;;8.15;;
14550;SDS011;7362;50.956;4.184;2022-10-13T21:11:55;10.18;;;9.15;;
14550;SDS011;7362;50.956;4.184;2022-10-13T21:14:20;10.90;;;9.25;;
14550;SDS011;7362;50.956;4.184;2022-10-13T21:16:46;10.63;;;9.30;;
14550;SDS011;7362;50.956;4.184;2022-10-13T21:19:12;10.98;;;9.77;;
14550;SDS011;7362;50.956;4.184;2022-10-13T21:21:39;10.55;;;9.32;;
14550;SDS011;7362;50.956;4.184;2022-10-13T21:24:05;11.88;;;10.13;;
14550;SDS011;7362;50.956;4.184;2022-10-13T21:26:33;11.35;;;10.25;;
14550;SDS011;7362;50.956;4.184;2022-10-13T21:29:00;13.20;;;11.70;;
14550;SDS011;7362;50.956;4.184;2022-10-13T21:31:27;13.32;;;10.95;;
14550;SDS011;7362;50.956;4.184;2022-10-13T21:33:54;13.32;;;10.80;;
14550;SDS011;7362;50.956;4.184;2022-10-13T21:39:16;13.18;;;10.73;;
14550;SDS011;7362;50.956;4.184;2022-10-13T21:41:44;14.35;;;11.25;;
14550;SDS011;7362;50.956;4.184;2022-10-13T21:44:12;11.68;;;10.23;;
14550;SDS011;7362;50.956;4.184;2022-10-13T21:46:38;15.93;;;11.93;;
14550;SDS011;7362;50.956;4.184;2022-10-13T21:49:08;13.00;;;11.60;;
14550;SDS011;7362;50.956;4.184;2022-10-13T21:51:35;13.80;;;11.27;;
14550;SDS011;7362;50.956;4.184;2022-10-13T21:54:08;13.07;;;11.25;;
14550;SDS011;7362;50.956;4.184;2022-10-13T21:56:37;11.75;;;10.40;;
14550;SDS011;7362;50.956;4.184;2022-10-13T22:01:56;13.52;;;11.68;;
14550;SDS011;7362;50.956;4.184;2022-10-13T22:04:25;12.55;;;11.25;;
14550;SDS011;7362;50.956;4.184;2022-10-13T22:07:03;12.50;;;11.13;;
14550;SDS011;7362;50.956;4.184;2022-10-13T22:12:14;13.32;;;11.07;;
14550;SDS011;7362;50.956;4.184;2022-10-13T22:14:39;14.60;;;10.77;;
14550;SDS011;7362;50.956;4.184;2022-10-13T22:19:34;11.38;;;8.85;;
14550;SDS011;7362;50.956;4.184;2022-10-13T22:22:00;11.20;;;9.98;;
14550;SDS011;7362;50.956;4.184;2022-10-13T22:24:27;13.80;;;10.35;;
14550;SDS011;7362;50.956;4.184;2022-10-13T22:26:53;10.18;;;9.07;;
14550;SDS011;7362;50.956;4.184;2022-10-13T22:29:21;12.68;;;9.70;;
14550;SDS011;7362;50.956;4.184;2022-10-13T22:31:48;12.18;;;9.70;;
14550;SDS011;7362;50.956;4.184;2022-10-13T22:39:24;12.73;;;10.32;;
14550;SDS011;7362;50.956;4.184;2022-10-13T22:41:52;12.63;;;10.27;;